createdAt,value
2023-05-13T00:02:53.015Z,72.58
2023-05-13T00:06:57.341Z,72.94
2023-05-13T00:11:00.534Z,73.35
2023-05-13T00:15:03.695Z,73.92
2023-05-13T00:19:07.331Z,74.69
2023-05-13T00:23:12.425Z,75.32
2023-05-13T00:27:16.191Z,75.89
2023-05-13T00:31:19.336Z,76.90
2023-05-13T00:35:22.699Z,77.19
2023-05-13T00:39:27.230Z,77.81
2023-05-13T00:43:30.011Z,78.33
2023-05-13T00:47:34.220Z,78.83
2023-05-13T00:51:37.752Z,79.09
2023-05-13T00:55:44.339Z,79.46
2023-05-13T00:59:48.444Z,79.82
2023-05-13T01:04:00.100Z,80.40
2023-05-13T01:08:08.318Z,81.24
2023-05-13T01:12:41.765Z,81.47
2023-05-13T01:16:50.367Z,81.84
2023-05-13T01:20:53.109Z,82.25
2023-05-13T01:24:57.241Z,82.50
2023-05-13T01:29:00.730Z,83.51
2023-05-13T01:33:04.164Z,83.93
2023-05-13T01:37:07.908Z,84.84
2023-05-13T01:41:12.305Z,85.24
2023-05-13T01:45:16.110Z,85.66
2023-05-13T01:49:18.899Z,86.25
2023-05-13T01:53:22.216Z,86.99
2023-05-13T01:57:29.847Z,87.49
2023-05-13T02:01:33.654Z,87.57
2023-05-13T02:05:37.541Z,88.26
2023-05-13T02:09:43.497Z,88.45
2023-05-13T02:13:48.251Z,88.92
2023-05-13T02:17:51.266Z,88.89
2023-05-13T02:21:55.304Z,89.54
2023-05-13T02:25:58.976Z,89.44
2023-05-13T02:30:05.456Z,89.80
2023-05-13T02:34:08.380Z,90.26
2023-05-13T02:38:11.349Z,91.29
2023-05-13T02:42:14.136Z,91.24
2023-05-13T02:46:18.463Z,91.59
2023-05-13T02:50:21.796Z,92.02
2023-05-13T02:54:25.465Z,92.85
2023-05-13T02:58:28.233Z,93.29
2023-05-13T03:02:34.184Z,93.51
2023-05-13T03:06:37.477Z,93.83
2023-05-13T03:10:41.529Z,94.18
2023-05-13T03:14:44.504Z,94.35
2023-05-13T03:18:48.908Z,94.32
2023-05-13T03:22:52.748Z,94.51
2023-05-13T03:26:58.616Z,95.25
2023-05-13T03:31:02.574Z,95.30
2023-05-13T03:35:10.651Z,95.58
2023-05-13T03:39:14.147Z,96.05
2023-05-13T03:43:18.071Z,96.21
2023-05-13T03:47:26.067Z,96.22
2023-05-13T03:51:32.973Z,97.04
2023-05-13T03:55:38.210Z,97.27
2023-05-13T03:59:41.025Z,97.59
2023-05-13T04:03:45.364Z,98.28
2023-05-13T04:07:49.604Z,98.17
2023-05-13T04:11:52.405Z,98.77
2023-05-13T04:15:55.510Z,99.16
2023-05-13T04:19:58.490Z,100.00
2023-05-13T04:24:02.862Z,100.00
2023-05-13T04:28:07.095Z,100.00
2023-05-13T04:32:21.256Z,100.00
2023-05-13T04:36:26.429Z,100.00
2023-05-13T04:40:32.714Z,100.00
2023-05-13T04:44:41.171Z,100.00
2023-05-13T04:48:48.031Z,100.00
2023-05-13T04:52:52.095Z,100.00
2023-05-13T04:56:57.225Z,100.00
2023-05-13T05:01:00.775Z,100.00
2023-05-13T05:05:03.795Z,100.00
2023-05-13T05:09:06.712Z,100.00
2023-05-13T05:13:12.037Z,100.00
2023-05-13T05:17:15.615Z,100.00
2023-05-13T05:21:19.060Z,100.00
2023-05-13T05:25:22.673Z,100.00
2023-05-13T05:29:27.440Z,100.00
2023-05-13T05:33:31.381Z,100.00
2023-05-13T05:37:34.384Z,100.00
2023-05-13T05:41:37.990Z,100.00
2023-05-13T05:45:42.446Z,100.00
2023-05-13T05:49:49.688Z,100.00
2023-05-13T05:53:52.674Z,99.83
2023-05-13T05:57:55.933Z,99.92
2023-05-13T06:02:00.984Z,99.13
2023-05-13T06:06:04.054Z,98.67
2023-05-13T06:10:08.393Z,96.90
2023-05-13T06:14:19.566Z,94.80
2023-05-13T06:18:23.941Z,91.50
2023-05-13T06:22:27.214Z,88.63
2023-05-13T06:26:31.017Z,85.16
2023-05-13T06:30:33.951Z,82.84
2023-05-13T06:34:45.664Z,79.45
2023-05-13T06:38:50.798Z,75.63
2023-05-13T06:42:53.716Z,75.53
2023-05-13T06:47:05.586Z,71.11
2023-05-13T06:51:09.815Z,67.71
2023-05-13T06:55:13.116Z,65.99
2023-05-13T06:59:47.029Z,64.51
2023-05-13T07:03:50.086Z,63.46
2023-05-13T07:08:00.024Z,61.91
2023-05-13T07:12:02.988Z,60.38
2023-05-13T07:16:06.257Z,58.28
2023-05-13T07:20:10.232Z,57.18
2023-05-13T07:24:14.894Z,56.68
2023-05-13T07:28:17.693Z,54.91
2023-05-13T07:32:21.059Z,55.71
2023-05-13T07:36:24.014Z,55.04
2023-05-13T07:40:28.105Z,53.06
2023-05-13T07:44:30.849Z,51.98
2023-05-13T07:48:33.941Z,51.75
2023-05-13T07:52:37.137Z,51.91
2023-05-13T07:56:44.093Z,50.24
2023-05-13T08:00:49.323Z,50.13
2023-05-13T08:04:52.418Z,49.17
2023-05-13T08:08:55.288Z,49.19
2023-05-13T08:13:00.961Z,49.11
2023-05-13T08:17:06.265Z,48.97
2023-05-13T08:21:09.261Z,47.82
2023-05-13T08:25:12.557Z,47.89
2023-05-13T08:29:17.165Z,48.18
2023-05-13T08:33:20.066Z,46.51
2023-05-13T08:37:23.085Z,44.81
2023-05-13T08:41:25.849Z,44.18
2023-05-13T08:45:32.241Z,44.26
2023-05-13T08:49:42.048Z,43.83
2023-05-13T08:53:49.099Z,43.30
2023-05-13T08:57:54.745Z,42.00
2023-05-13T09:02:03.050Z,42.30
2023-05-13T09:06:06.458Z,42.07
2023-05-13T09:10:11.508Z,41.38
2023-05-13T09:14:14.608Z,41.49
2023-05-13T09:18:21.515Z,39.51
2023-05-13T09:22:25.675Z,39.98
2023-05-13T09:26:29.167Z,39.47
2023-05-13T09:30:35.637Z,38.88
2023-05-13T09:34:51.959Z,39.04
2023-05-13T09:38:56.725Z,37.37
2023-05-13T09:43:00.582Z,38.34
2023-05-13T09:47:04.713Z,37.16
2023-05-13T09:51:10.030Z,37.29
2023-05-13T09:55:12.930Z,36.06
2023-05-13T09:59:17.194Z,35.11
2023-05-13T10:03:21.485Z,33.81
2023-05-13T10:07:27.335Z,34.22
2023-05-13T10:11:39.636Z,32.86
2023-05-13T10:15:49.988Z,32.52
2023-05-13T10:19:54.530Z,33.05
2023-05-13T10:23:59.868Z,32.34
2023-05-13T10:28:20.272Z,32.34
2023-05-13T10:32:40.467Z,31.53
2023-05-13T10:37:12.786Z,31.40
2023-05-13T10:41:53.310Z,31.02
2023-05-13T10:45:59.599Z,28.81
2023-05-13T10:50:06.484Z,28.72
2023-05-13T10:54:20.361Z,28.98
2023-05-13T10:58:31.912Z,29.56
2023-05-13T11:02:40.349Z,28.84
2023-05-13T11:06:46.320Z,28.20
2023-05-13T11:10:56.188Z,29.56
2023-05-13T11:15:00.434Z,29.55
2023-05-13T11:19:04.357Z,29.87
2023-05-13T11:23:08.610Z,29.40
2023-05-13T11:27:16.393Z,29.22
2023-05-13T11:31:21.440Z,29.51
2023-05-13T11:35:25.854Z,29.13
2023-05-13T11:39:28.744Z,30.06
2023-05-13T11:43:34.721Z,28.70
2023-05-13T11:47:39.052Z,28.56
2023-05-13T11:51:41.911Z,28.83
2023-05-13T11:55:44.783Z,27.60
2023-05-13T11:59:51.970Z,28.46
2023-05-13T12:04:04.018Z,29.35
2023-05-13T12:08:10.595Z,28.36
2023-05-13T12:12:13.473Z,27.61
2023-05-13T12:16:16.810Z,27.47
2023-05-13T12:20:22.645Z,27.27
2023-05-13T12:24:25.630Z,27.29
2023-05-13T12:28:28.402Z,27.67
2023-05-13T12:32:31.237Z,27.41
2023-05-13T12:36:38.623Z,27.26
2023-05-13T12:40:41.348Z,27.91
2023-05-13T12:44:45.809Z,26.74
2023-05-13T12:48:48.572Z,28.31
2023-05-13T12:52:53.296Z,28.22
2023-05-13T12:56:56.343Z,26.85
2023-05-13T13:00:59.104Z,27.56
2023-05-13T13:05:01.857Z,27.05
2023-05-13T13:09:06.236Z,27.44
2023-05-13T13:13:09.191Z,28.27
2023-05-13T13:17:11.972Z,28.03
2023-05-13T13:21:14.698Z,28.00
2023-05-13T13:25:18.811Z,26.96
2023-05-13T13:29:21.885Z,27.84
2023-05-13T13:33:24.708Z,27.25
2023-05-13T13:37:27.579Z,28.00
2023-05-13T13:41:32.166Z,28.18
2023-05-13T13:45:35.151Z,28.10
2023-05-13T13:49:38.048Z,27.92
2023-05-13T13:53:40.929Z,27.34
2023-05-13T13:57:45.199Z,27.07
2023-05-13T14:01:48.310Z,26.72
2023-05-13T14:05:51.928Z,28.53
2023-05-13T14:09:54.732Z,28.76
2023-05-13T14:13:58.970Z,27.89
2023-05-13T14:18:01.805Z,27.65
2023-05-13T14:22:04.847Z,27.42
2023-05-13T14:26:08.456Z,27.36
2023-05-13T14:30:13.474Z,27.88
2023-05-13T14:34:16.571Z,27.10
2023-05-13T14:38:19.858Z,27.37
2023-05-13T14:42:23.162Z,27.15
2023-05-13T14:46:27.758Z,27.18
2023-05-13T14:50:30.541Z,27.03
2023-05-13T14:54:35.787Z,27.65
2023-05-13T14:58:39.033Z,28.32
2023-05-13T15:02:43.261Z,28.27
2023-05-13T15:06:46.264Z,28.52
2023-05-13T15:10:49.008Z,28.33
2023-05-13T15:14:53.475Z,27.39
2023-05-13T15:18:57.778Z,27.79
2023-05-13T15:23:00.563Z,28.26
2023-05-13T15:27:03.663Z,27.08
2023-05-13T15:31:07.250Z,28.11
2023-05-13T15:35:11.584Z,28.22
2023-05-13T15:39:14.397Z,28.50
2023-05-13T15:43:17.962Z,27.99
2023-05-13T15:47:21.032Z,28.01
2023-05-13T15:51:25.430Z,28.95
2023-05-13T15:55:28.164Z,29.16
2023-05-13T15:59:30.913Z,29.12
2023-05-13T16:03:33.642Z,29.14
2023-05-13T16:07:37.740Z,29.24
2023-05-13T16:11:40.409Z,29.45
2023-05-13T16:15:43.220Z,29.42
2023-05-13T16:19:46.029Z,29.26
2023-05-13T16:23:51.003Z,29.55
2023-05-13T16:27:55.034Z,29.93
2023-05-13T16:31:58.030Z,31.20
2023-05-13T16:36:00.825Z,30.91
2023-05-13T16:40:05.599Z,30.77
2023-05-13T16:44:08.351Z,31.21
2023-05-13T16:48:11.326Z,32.09
2023-05-13T16:52:14.528Z,32.68
2023-05-13T16:56:18.769Z,33.74
2023-05-13T17:00:21.942Z,32.47
2023-05-13T17:04:24.778Z,33.10
2023-05-13T17:08:27.515Z,32.95
2023-05-13T17:12:31.823Z,33.69
2023-05-13T17:16:34.942Z,33.62
2023-05-13T17:20:37.705Z,33.81
2023-05-13T17:24:40.672Z,34.43
2023-05-13T17:28:44.748Z,34.47
2023-05-13T17:32:47.738Z,34.50
2023-05-13T17:36:50.895Z,35.25
2023-05-13T17:40:54.318Z,35.70
2023-05-13T17:44:58.805Z,35.97
2023-05-13T17:49:01.704Z,36.67
2023-05-13T17:53:32.956Z,37.06
2023-05-13T17:57:37.638Z,37.21
2023-05-13T18:01:41.784Z,37.24
2023-05-13T18:05:46.121Z,37.93
2023-05-13T18:09:50.552Z,38.40
2023-05-13T18:13:54.167Z,38.40
2023-05-13T18:17:58.335Z,38.69
2023-05-13T18:22:01.336Z,39.48
2023-05-13T18:26:04.436Z,39.53
2023-05-13T18:30:08.318Z,40.16
2023-05-13T18:34:12.569Z,40.34
2023-05-13T18:38:15.399Z,40.66
2023-05-13T18:42:18.320Z,41.04
2023-05-13T18:46:21.304Z,41.28
2023-05-13T18:50:26.075Z,42.15
2023-05-13T18:54:29.385Z,42.43
2023-05-13T19:03:04.552Z,43.47
2023-05-13T19:07:08.854Z,43.92
2023-05-13T19:12:02.012Z,43.92
2023-05-13T19:16:05.012Z,44.58
2023-05-13T19:20:09.378Z,44.94
2023-05-13T19:24:13.666Z,45.51
2023-05-13T19:28:17.388Z,45.60
2023-05-13T19:32:20.217Z,46.30
2023-05-13T19:36:26.020Z,47.29
2023-05-13T19:40:30.567Z,47.64
2023-05-13T19:44:34.074Z,48.02
2023-05-13T19:48:36.784Z,48.10
2023-05-13T19:52:43.643Z,48.64
2023-05-13T19:56:47.779Z,49.27
2023-05-13T20:00:50.704Z,49.87
2023-05-13T20:04:55.857Z,49.88
2023-05-13T20:08:58.574Z,50.58
2023-05-13T20:13:04.030Z,51.56
2023-05-13T20:17:07.057Z,52.28
2023-05-13T20:21:10.101Z,52.63
2023-05-13T20:25:12.969Z,52.96
2023-05-13T20:29:21.040Z,53.56
2023-05-13T20:33:24.104Z,53.39
2023-05-13T20:37:26.955Z,53.34
2023-05-13T20:41:29.967Z,53.53
2023-05-13T20:45:36.465Z,53.71
2023-05-13T20:49:39.855Z,53.90
2023-05-13T20:53:42.908Z,54.12
2023-05-13T20:57:45.603Z,54.38
2023-05-13T21:01:49.751Z,54.95
2023-05-13T21:05:52.625Z,55.02
2023-05-13T21:09:55.366Z,55.38
2023-05-13T21:13:58.171Z,55.72
2023-05-13T21:18:02.312Z,56.44
2023-05-13T21:22:05.902Z,56.75
2023-05-13T21:26:08.671Z,57.15
2023-05-13T21:30:12.486Z,57.60
2023-05-13T21:34:16.601Z,57.74
2023-05-13T21:38:19.305Z,58.08
2023-05-13T21:42:22.155Z,58.96
2023-05-13T21:46:25.303Z,58.98
2023-05-13T21:50:29.446Z,58.51
2023-05-13T21:54:32.655Z,58.37
2023-05-13T21:58:35.403Z,58.31
2023-05-13T22:02:38.716Z,58.20
2023-05-13T22:06:43.187Z,58.15
2023-05-13T22:10:45.944Z,57.85
2023-05-13T22:14:48.678Z,57.74
2023-05-13T22:18:51.692Z,57.94
2023-05-13T22:22:55.808Z,58.36
2023-05-13T22:26:58.642Z,58.27
2023-05-13T22:31:01.518Z,58.76
2023-05-13T22:35:04.503Z,58.96
2023-05-13T22:39:08.740Z,59.34
2023-05-13T22:43:11.386Z,59.85
2023-05-13T22:47:14.430Z,60.13
2023-05-13T22:51:17.174Z,60.31
2023-05-13T22:55:22.099Z,60.79
2023-05-13T22:59:24.820Z,61.16
2023-05-13T23:03:27.528Z,61.74
2023-05-13T23:07:30.378Z,61.94
2023-05-13T23:11:36.238Z,62.47
2023-05-13T23:15:39.283Z,62.78
2023-05-13T23:19:42.002Z,63.56
2023-05-13T23:23:44.699Z,64.43
2023-05-13T23:27:48.750Z,65.67
2023-05-13T23:31:51.434Z,66.65
2023-05-13T23:35:54.291Z,67.87
2023-05-13T23:39:57.056Z,69.14
2023-05-13T23:44:01.106Z,70.77
2023-05-13T23:48:03.861Z,71.95
2023-05-13T23:52:07.297Z,73.72
2023-05-13T23:56:10.015Z,74.76
